Holy Cross Airport
PAHC : now visible

Airfield :











YOU CAN JOIN US ON...

 
LOGIN :

Register | Disclaimer

   EN    FR    IT 

 









Legend :    VFR   Marginal VFR   IFR   Intensive IFR   Very Intensive IFR
Visi :
Ceiling :
>= 8 km
>= 3000ft
5 to 8 km
1000 to 3000 ft
1500m to 5 km
500 to 1000 ft
800 to 1500m
200 to 500 ft
< 800m
< 200 ft
Symbols :   Thunderstorms  Fog  Heavy snow  Heavy precipitations  Wind > 20 kt






- Airport Elevation : 70 ft
- IATA code : HCR


PAHC - Holy Cross

CURRENT METAR :
  • 010756Z AUTO 18003KT 1 3/4SM BR FEW004 OVC016 14/13 A2987 RMK AO2 SLP119 P0003 T01390133 401500139 PWINO $

EXPIRED METARs :
  • 010739Z AUTO 00000KT 2SM BR FEW004 BKN018 OVC031 14/13 A2987 RMK AO2 P0001 PWINO $
  • 010723Z AUTO 19004KT 2 1/2SM BR SCT004 BKN012 OVC042 14/13 A2986 RMK AO2 P0001 PWINO $
  • 010718Z AUTO 00000KT 3SM BR BKN004 BKN028 OVC042 14/13 A2986 RMK AO2 PWINO $
  • 010656Z AUTO 20003KT 5SM BR BKN006 OVC050 14/13 A2986 RMK AO2 CIG 004V014 SLP116 P0002 T01390133 PWINO $
  • 010640Z AUTO 20004KT 6SM BR BKN008 BKN020 OVC060 14/13 A2986 RMK AO2 CIG 005V011 P0001 PWINO $
  • 010556Z AUTO 20003KT 10SM FEW004 OVC050 14/13 A2986 RMK AO2 SLP115 P0001 60015 T01390133 10144 20139 52006 PWINO $
  • 010541Z AUTO VRB04KT 7SM SCT006 BKN016 OVC049 14/13 A2985 RMK AO2 P0001 PWINO $
  • 010527Z AUTO 20003KT 3SM BR SCT006 BKN011 OVC037 14/13 A2985 RMK AO2 P0001 PWINO $
  • 010523Z AUTO 19004KT 2 1/2SM BR SCT006 BKN018 OVC035 14/14 A2986 RMK AO2 P0001 PWINO $

TAF N/A
PAZA FIR / North America



MET'MAP, your aeronautical weather chart ! - Copyright ORBIFLY December 2007 - Disclaimer

ORBIFLY MET'MAP TEAM :

Programming & Development : Alexandra Zaïnal
Concept & original design : Baudouin d'Aumeries
Assistance for programming : Marc-Olivier Méhu
Technical & hardware support : Manuel Goepfert

Contact : metmap@orbifly.com




SOURCES & CREDITS :

   NOAA       Earth
Advisory